createdAt,value
2019-02-27T00:06:47.909Z,117.90
2019-02-27T00:09:19.316Z,129.23
2019-02-27T00:11:50.614Z,99.53
2019-02-27T00:14:19.272Z,110.67
2019-02-27T00:16:51.145Z,110.70
2019-02-27T00:19:20.156Z,116.00
2019-02-27T00:21:52.071Z,110.60
2019-02-27T00:24:23.571Z,104.20
2019-02-27T00:26:55.235Z,115.00
2019-02-27T00:29:23.820Z,128.20
2019-02-27T00:31:57.860Z,99.63
2019-02-27T00:34:32.818Z,98.77
2019-02-27T00:37:02.059Z,107.30
2019-02-27T00:39:33.323Z,100.00
2019-02-27T00:42:05.375Z,86.83
2019-02-27T00:44:34.790Z,109.57
2019-02-27T00:47:06.096Z,104.00
2019-02-27T00:49:35.069Z,124.03
2019-02-27T00:52:03.621Z,94.90
2019-02-27T00:54:32.214Z,106.87
2019-02-27T00:57:04.073Z,95.43
2019-02-27T00:59:35.418Z,102.47
2019-02-27T01:02:07.140Z,127.40
2019-02-27T01:04:38.692Z,148.27
2019-02-27T01:07:07.251Z,123.13
2019-02-27T01:09:39.521Z,111.50
2019-02-27T01:12:11.713Z,123.10
2019-02-27T01:14:43.267Z,133.50
2019-02-27T01:17:14.956Z,119.80
2019-02-27T01:19:43.533Z,137.57
2019-02-27T01:22:12.095Z,121.03
2019-02-27T01:24:43.863Z,136.40
2019-02-27T01:27:15.192Z,140.63
2019-02-27T01:29:43.899Z,121.47
2019-02-27T01:32:15.180Z,113.27
2019-02-27T01:34:47.770Z,128.90
2019-02-27T01:37:19.172Z,129.23
2019-02-27T01:39:50.474Z,122.10
2019-02-27T01:42:19.040Z,122.83
2019-02-27T01:44:51.937Z,153.73
2019-02-27T01:47:23.521Z,144.87
2019-02-27T01:49:56.844Z,154.20
2019-02-27T01:52:33.976Z,139.73
2019-02-27T01:55:04.861Z,145.67
2019-02-27T01:57:36.816Z,151.57
2019-02-27T02:00:09.700Z,162.67
2019-02-27T02:02:40.462Z,137.40
2019-02-27T02:05:08.667Z,130.12
2019-02-27T02:07:40.161Z,119.13
2019-02-27T02:10:11.230Z,114.67
2019-02-27T02:12:43.180Z,145.77
2019-02-27T02:15:14.894Z,131.40
2019-02-27T02:18:01.360Z,127.33
2019-02-27T02:21:05.235Z,155.70
2019-02-27T02:23:59.881Z,168.53
2019-02-27T02:26:55.909Z,174.67
2019-02-27T02:30:01.147Z,246.27
2019-02-27T02:32:38.640Z,202.00
2019-02-27T02:35:19.040Z,255.52
2019-02-27T02:38:03.031Z,203.33
2019-02-27T02:40:58.980Z,189.03
2019-02-27T02:43:45.253Z,229.25
2019-02-27T02:46:22.820Z,270.37
2019-02-27T02:49:24.391Z,235.57
2019-02-27T02:52:15.167Z,243.50
2019-02-27T02:55:13.527Z,245.82
2019-02-27T02:58:11.404Z,183.12
2019-02-27T03:01:01.304Z,209.57
2019-02-27T03:03:38.848Z,253.53
2019-02-27T03:06:27.272Z,217.93
2019-02-27T03:09:30.636Z,168.80
2019-02-27T03:12:19.298Z,268.33
2019-02-27T03:15:19.402Z,247.03
2019-02-27T03:18:14.029Z,155.57
2019-02-27T03:20:52.470Z,189.10
2019-02-27T03:23:58.006Z,181.97
2019-02-27T03:27:03.594Z,190.90
2019-02-27T03:29:51.980Z,164.82
2019-02-27T03:32:54.140Z,199.12
2019-02-27T03:35:37.775Z,238.10
2019-02-27T03:38:24.820Z,207.80
2019-02-27T03:41:02.217Z,251.73
2019-02-27T03:43:54.805Z,120.30
2019-02-27T03:46:42.004Z,231.70
2019-02-27T03:49:39.758Z,219.20
2019-02-27T03:52:36.551Z,151.53
2019-02-27T03:55:15.948Z,332.53
2019-02-27T03:57:56.883Z,133.50
2019-02-27T04:00:31.341Z,183.87
2019-02-27T04:03:17.083Z,112.97
2019-02-27T04:05:50.803Z,232.77
2019-02-27T04:08:28.221Z,215.00
2019-02-27T04:10:57.444Z,150.95
2019-02-27T04:13:29.409Z,165.73
2019-02-27T04:15:59.542Z,121.07
2019-02-27T04:18:32.829Z,132.67
2019-02-27T04:21:01.418Z,146.00
2019-02-27T04:23:30.311Z,142.85
2019-02-27T04:25:58.876Z,161.53
2019-02-27T04:28:29.958Z,263.60
2019-02-27T04:31:02.143Z,162.20
2019-02-27T04:33:30.735Z,297.70
2019-02-27T04:35:59.302Z,102.03
2019-02-27T04:38:30.996Z,188.67
2019-02-27T04:40:59.907Z,167.83
2019-02-27T04:43:32.180Z,189.90
2019-02-27T04:46:01.360Z,150.72
2019-02-27T04:48:32.910Z,188.90
2019-02-27T04:51:01.496Z,165.10
2019-02-27T04:53:32.781Z,285.05
2019-02-27T04:56:01.348Z,285.53
2019-02-27T04:58:32.880Z,259.63
2019-02-27T05:01:04.408Z,295.73
2019-02-27T05:03:32.976Z,267.93
2019-02-27T05:06:01.560Z,150.95
2019-02-27T05:08:30.169Z,273.43
2019-02-27T05:10:58.750Z,135.55
2019-02-27T05:13:30.057Z,114.00
2019-02-27T05:16:01.506Z,125.78
2019-02-27T05:18:33.093Z,157.47
2019-02-27T05:21:04.359Z,210.37
2019-02-27T05:23:35.801Z,209.30
2019-02-27T05:26:07.148Z,221.60
2019-02-27T05:28:36.126Z,142.55
2019-02-27T05:31:07.887Z,162.40
2019-02-27T05:33:39.882Z,80.22
2019-02-27T05:36:08.616Z,209.33
2019-02-27T05:38:41.010Z,131.05
2019-02-27T05:41:10.350Z,129.87
2019-02-27T05:43:38.950Z,226.42
2019-02-27T05:46:07.522Z,164.90
2019-02-27T05:48:39.434Z,198.40
2019-02-27T05:51:10.899Z,167.53
2019-02-27T05:53:39.486Z,136.57
2019-02-27T05:56:15.565Z,94.35
2019-02-27T05:58:44.572Z,134.00
2019-02-27T06:01:13.155Z,91.72
2019-02-27T06:03:44.530Z,101.55
2019-02-27T06:06:15.971Z,85.35
2019-02-27T06:08:44.580Z,83.78
2019-02-27T06:11:15.911Z,106.40
2019-02-27T06:13:48.236Z,103.57
2019-02-27T06:16:17.153Z,133.17
2019-02-27T06:18:48.583Z,157.78
2019-02-27T06:21:17.152Z,117.97
2019-02-27T06:23:48.769Z,142.60
2019-02-27T06:26:17.338Z,96.63
2019-02-27T06:28:45.951Z,101.75
2019-02-27T06:31:17.690Z,92.30
2019-02-27T06:33:49.235Z,101.40
2019-02-27T06:36:20.727Z,98.40
2019-02-27T06:38:52.665Z,102.17
2019-02-27T06:41:24.022Z,114.73
2019-02-27T06:43:55.906Z,118.40
2019-02-27T06:46:28.704Z,114.97
2019-02-27T06:49:00.196Z,122.40
2019-02-27T06:51:28.776Z,117.20
2019-02-27T06:54:00.306Z,126.03
2019-02-27T06:56:32.120Z,124.80
2019-02-27T06:59:00.748Z,112.90
2019-02-27T07:01:29.312Z,118.40
2019-02-27T07:04:02.243Z,117.75
2019-02-27T07:06:31.192Z,113.50
2019-02-27T07:08:59.778Z,108.87
2019-02-27T07:11:28.356Z,124.77
2019-02-27T07:13:56.952Z,100.63
2019-02-27T07:16:26.014Z,115.27
2019-02-27T07:19:13.160Z,107.20
2019-02-27T07:21:42.412Z,96.80
2019-02-27T07:24:11.005Z,101.90
2019-02-27T07:26:42.250Z,95.13
2019-02-27T07:29:10.844Z,86.93
2019-02-27T07:31:42.530Z,92.53
2019-02-27T07:34:14.896Z,118.30
2019-02-27T07:36:43.571Z,112.83
2019-02-27T07:39:12.124Z,92.13
2019-02-27T07:41:43.678Z,91.37
2019-02-27T07:44:12.229Z,83.40
2019-02-27T07:46:43.539Z,100.00
2019-02-27T07:49:15.073Z,85.20
2019-02-27T07:51:43.660Z,76.30
2019-02-27T07:54:12.580Z,87.50
2019-02-27T07:56:44.156Z,80.60
2019-02-27T07:59:15.377Z,86.33
2019-02-27T08:01:44.250Z,95.90
2019-02-27T08:04:19.041Z,91.93
2019-02-27T08:06:46.544Z,89.07
2019-02-27T08:09:18.018Z,90.73
2019-02-27T08:11:49.871Z,96.27
2019-02-27T08:14:21.398Z,91.73
2019-02-27T08:16:57.177Z,95.93
2019-02-27T08:19:26.309Z,99.70
2019-02-27T08:22:01.254Z,112.23
2019-02-27T08:24:33.784Z,86.93
2019-02-27T08:27:02.889Z,88.70
2019-02-27T08:29:31.830Z,81.60
2019-02-27T08:32:05.348Z,74.47
2019-02-27T08:34:33.511Z,85.53
2019-02-27T08:37:04.957Z,87.90
2019-02-27T08:39:36.506Z,71.00
2019-02-27T08:42:07.781Z,82.17
2019-02-27T08:44:39.307Z,85.37
2019-02-27T08:47:11.015Z,72.57
2019-02-27T08:49:39.575Z,70.80
2019-02-27T08:52:08.564Z,77.93
2019-02-27T08:54:40.041Z,68.67
2019-02-27T08:57:11.321Z,64.13
2019-02-27T08:59:42.762Z,63.20
2019-02-27T09:02:11.412Z,73.90
2019-02-27T09:04:45.530Z,64.77
2019-02-27T09:07:16.377Z,58.43
2019-02-27T09:09:51.192Z,67.20
2019-02-27T09:12:18.201Z,60.23
2019-02-27T09:14:50.448Z,71.67
2019-02-27T09:17:22.024Z,71.73
2019-02-27T09:19:53.365Z,67.53
2019-02-27T09:22:25.019Z,49.93
2019-02-27T09:24:57.244Z,59.43
2019-02-27T09:27:25.871Z,61.77
2019-02-27T09:29:55.345Z,67.67
2019-02-27T09:32:27.137Z,62.10
2019-02-27T09:34:59.609Z,54.50
2019-02-27T09:37:31.919Z,59.27
2019-02-27T09:40:05.867Z,59.20
2019-02-27T09:42:34.691Z,66.67
2019-02-27T09:45:03.318Z,53.07
2019-02-27T09:47:31.885Z,48.27
2019-02-27T09:50:03.567Z,49.50
2019-02-27T09:52:35.044Z,55.97
2019-02-27T09:55:07.105Z,49.73
2019-02-27T09:57:38.609Z,46.13
2019-02-27T10:00:29.882Z,45.00
2019-02-27T10:03:02.029Z,45.27
2019-02-27T10:05:31.028Z,48.20
2019-02-27T10:07:59.895Z,42.53
2019-02-27T10:10:31.250Z,40.43
2019-02-27T10:12:59.971Z,49.87
2019-02-27T10:15:28.647Z,44.07
2019-02-27T10:17:59.150Z,52.87
2019-02-27T10:20:30.555Z,49.53
2019-02-27T10:22:59.320Z,47.87
2019-02-27T10:25:30.945Z,45.00
2019-02-27T10:28:03.436Z,46.60
2019-02-27T10:30:30.125Z,44.30
2019-02-27T10:32:58.737Z,42.30
2019-02-27T10:35:30.603Z,50.27
2019-02-27T10:37:59.179Z,46.93
2019-02-27T10:40:31.004Z,48.53
2019-02-27T10:42:59.566Z,42.73
2019-02-27T10:45:34.238Z,49.73
2019-02-27T10:48:05.691Z,47.77
2019-02-27T10:50:37.363Z,45.07
2019-02-27T10:53:08.867Z,45.50
2019-02-27T10:55:41.339Z,47.17
2019-02-27T10:58:12.716Z,43.73
2019-02-27T11:00:41.595Z,39.60
2019-02-27T11:03:13.112Z,47.03
2019-02-27T11:05:41.759Z,39.70
2019-02-27T11:08:13.402Z,43.33
2019-02-27T11:10:42.046Z,46.50
2019-02-27T11:13:13.644Z,37.87
2019-02-27T11:15:44.556Z,44.80
2019-02-27T11:18:12.521Z,50.90
2019-02-27T11:20:44.067Z,40.63
2019-02-27T11:23:12.644Z,37.47
2019-02-27T11:25:44.034Z,38.20
2019-02-27T11:28:15.546Z,41.97
2019-02-27T11:30:44.427Z,43.00
2019-02-27T11:33:24.717Z,42.17
2019-02-27T11:35:43.478Z,38.43
2019-02-27T11:38:12.395Z,37.87
2019-02-27T11:40:43.895Z,35.13
2019-02-27T11:43:12.522Z,42.20
2019-02-27T11:45:41.182Z,37.97
2019-02-27T11:48:10.089Z,44.47
2019-02-27T11:50:41.673Z,40.43
2019-02-27T11:53:13.308Z,40.70
2019-02-27T11:55:47.068Z,38.10
2019-02-27T11:58:18.397Z,39.40
2019-02-27T12:00:49.803Z,36.03
2019-02-27T12:03:18.740Z,39.30
2019-02-27T12:05:47.756Z,34.97
2019-02-27T12:08:19.087Z,35.93
2019-02-27T12:10:50.610Z,41.63
2019-02-27T12:13:19.525Z,38.57
2019-02-27T12:15:48.121Z,37.23
2019-02-27T12:18:19.440Z,38.13
2019-02-27T12:20:48.088Z,33.90
2019-02-27T12:23:16.647Z,33.43
2019-02-27T12:25:47.959Z,31.67
2019-02-27T12:28:19.642Z,37.13
2019-02-27T12:30:48.978Z,35.27
2019-02-27T12:33:20.619Z,38.83
2019-02-27T12:35:49.373Z,34.83
2019-02-27T12:38:21.111Z,36.90
2019-02-27T12:40:52.622Z,33.63
2019-02-27T12:43:24.438Z,27.70
2019-02-27T12:45:53.015Z,33.97
2019-02-27T12:48:24.550Z,33.90
2019-02-27T12:50:56.394Z,36.27
2019-02-27T12:53:26.950Z,38.17
2019-02-27T12:56:01.003Z,33.60
2019-02-27T12:58:32.308Z,34.00
2019-02-27T13:01:04.824Z,34.07
2019-02-27T13:03:33.371Z,28.83
2019-02-27T13:06:05.619Z,30.57
2019-02-27T13:08:37.316Z,28.37
2019-02-27T13:11:09.021Z,28.23
2019-02-27T13:13:40.415Z,30.70
2019-02-27T13:16:14.307Z,29.70
2019-02-27T13:18:42.173Z,25.17
2019-02-27T13:21:10.786Z,26.33
2019-02-27T13:23:42.415Z,27.77
2019-02-27T13:26:13.785Z,30.47
2019-02-27T13:28:42.342Z,23.73
2019-02-27T13:31:13.664Z,27.57
2019-02-27T13:33:45.116Z,30.30
2019-02-27T13:36:16.580Z,26.37
2019-02-27T13:38:49.564Z,28.13
2019-02-27T13:41:21.501Z,26.63
2019-02-27T13:43:50.386Z,27.93
2019-02-27T13:46:22.749Z,23.50
2019-02-27T13:48:54.397Z,23.00
2019-02-27T13:51:27.622Z,25.10
2019-02-27T13:54:00.538Z,30.70
2019-02-27T13:56:34.102Z,28.53
2019-02-27T13:59:02.673Z,28.07
2019-02-27T14:01:34.251Z,26.33
2019-02-27T14:04:05.612Z,26.97
2019-02-27T14:06:34.171Z,26.23
2019-02-27T14:09:08.672Z,29.00
2019-02-27T14:11:40.710Z,56.77
2019-02-27T14:14:09.413Z,26.83
2019-02-27T14:16:37.960Z,24.03
2019-02-27T14:19:06.627Z,28.80
2019-02-27T14:21:36.153Z,24.73
2019-02-27T14:24:04.994Z,22.40
2019-02-27T14:26:38.277Z,23.63
2019-02-27T14:29:07.702Z,22.90
2019-02-27T14:31:36.901Z,22.87
2019-02-27T14:34:08.193Z,26.50
2019-02-27T14:36:39.392Z,29.97
2019-02-27T14:39:08.720Z,24.07
2019-02-27T14:41:40.088Z,24.10
2019-02-27T14:44:08.674Z,26.67
2019-02-27T14:46:37.244Z,26.50
2019-02-27T14:49:08.543Z,25.63
2019-02-27T14:51:41.174Z,34.13
2019-02-27T14:54:10.722Z,20.53
2019-02-27T14:56:42.709Z,26.47
2019-02-27T14:59:14.063Z,28.10
2019-02-27T15:01:48.634Z,27.60
2019-02-27T15:04:18.583Z,26.47
2019-02-27T15:06:51.263Z,35.93
2019-02-27T15:09:23.123Z,24.73
2019-02-27T15:11:54.406Z,29.03
2019-02-27T15:14:31.064Z,26.23
2019-02-27T15:17:01.340Z,30.27
2019-02-27T15:19:30.661Z,34.57
2019-02-27T15:22:02.372Z,28.80
2019-02-27T15:24:34.779Z,25.23
2019-02-27T15:27:06.926Z,29.73
2019-02-27T15:29:39.580Z,27.87
2019-02-27T15:32:08.987Z,22.67
2019-02-27T15:34:37.882Z,33.57
2019-02-27T15:37:09.141Z,30.47
2019-02-27T15:39:41.222Z,28.97
2019-02-27T15:42:12.468Z,30.30
2019-02-27T15:44:43.778Z,29.17
2019-02-27T15:47:15.602Z,24.97
2019-02-27T15:49:46.112Z,23.43
2019-02-27T15:52:17.459Z,30.67
2019-02-27T15:54:48.913Z,26.83
2019-02-27T15:57:20.192Z,32.47
2019-02-27T15:59:51.492Z,23.50
2019-02-27T16:02:23.201Z,26.33
2019-02-27T16:04:55.153Z,20.50
2019-02-27T16:07:22.090Z,26.33
2019-02-27T16:09:53.863Z,23.93
2019-02-27T16:12:25.947Z,24.10
2019-02-27T16:14:56.911Z,18.30
2019-02-27T16:17:30.956Z,25.27
2019-02-27T16:19:58.656Z,23.97
2019-02-27T16:22:31.510Z,19.73
2019-02-27T16:25:00.237Z,28.87
2019-02-27T16:27:29.163Z,28.03
2019-02-27T16:29:59.266Z,18.40
2019-02-27T16:32:29.375Z,22.90
2019-02-27T16:34:59.233Z,18.10
2019-02-27T16:37:31.489Z,21.00
2019-02-27T16:40:00.151Z,23.93
2019-02-27T16:42:28.884Z,39.70
2019-02-27T16:45:00.453Z,85.90
2019-02-27T16:47:29.021Z,59.07
2019-02-27T16:49:57.614Z,61.23
2019-02-27T16:52:29.122Z,49.00
2019-02-27T16:55:01.465Z,27.70
2019-02-27T16:57:31.164Z,25.73
2019-02-27T17:00:02.516Z,21.50
2019-02-27T17:02:35.497Z,27.37
2019-02-27T17:05:08.814Z,30.57
2019-02-27T17:07:36.128Z,34.93
2019-02-27T17:10:10.845Z,38.93
2019-02-27T17:12:42.237Z,36.30
2019-02-27T17:15:10.900Z,42.50
2019-02-27T17:17:39.534Z,35.83
2019-02-27T17:20:12.763Z,32.23
2019-02-27T17:22:44.330Z,33.37
2019-02-27T17:25:14.815Z,35.60
2019-02-27T17:27:49.962Z,39.77
2019-02-27T17:30:18.974Z,38.27
2019-02-27T17:32:47.777Z,40.37
2019-02-27T17:35:16.365Z,31.27
2019-02-27T17:37:47.669Z,28.67
2019-02-27T17:40:19.582Z,32.83
2019-02-27T17:42:53.135Z,29.43
2019-02-27T17:45:26.980Z,27.00
2019-02-27T17:47:56.006Z,28.20
2019-02-27T17:50:24.751Z,28.73
2019-02-27T17:52:53.440Z,25.30
2019-02-27T17:55:22.025Z,24.13
2019-02-27T17:57:57.707Z,22.77
2019-02-27T18:00:29.745Z,22.40
2019-02-27T18:02:59.077Z,25.93
2019-02-27T18:05:28.373Z,19.67
2019-02-27T18:07:57.041Z,28.87
2019-02-27T18:10:28.638Z,25.80
2019-02-27T18:13:01.403Z,23.60
2019-02-27T18:15:30.892Z,20.23
2019-02-27T18:18:02.492Z,25.20
2019-02-27T18:20:32.144Z,28.30
2019-02-27T18:23:00.837Z,29.27
2019-02-27T18:25:29.424Z,24.13
2019-02-27T18:28:00.787Z,24.87
2019-02-27T18:30:29.828Z,23.73
2019-02-27T18:33:01.003Z,27.00
2019-02-27T18:35:31.975Z,25.63
2019-02-27T18:38:00.541Z,21.90
2019-02-27T18:40:29.094Z,21.80
2019-02-27T18:43:00.735Z,24.80
2019-02-27T18:45:29.852Z,21.83
2019-02-27T18:48:01.135Z,32.53
2019-02-27T18:50:29.759Z,25.07
2019-02-27T18:53:01.316Z,27.00
2019-02-27T18:55:31.387Z,31.17
2019-02-27T18:58:00.283Z,25.27
2019-02-27T19:00:33.436Z,21.13
2019-02-27T19:03:06.277Z,27.60
2019-02-27T19:05:38.156Z,24.80
2019-02-27T19:08:07.298Z,26.43
2019-02-27T19:10:41.401Z,27.43
2019-02-27T19:13:11.003Z,34.73
2019-02-27T19:15:45.317Z,28.83
2019-02-27T19:18:11.228Z,31.30
2019-02-27T19:20:45.194Z,28.47
2019-02-27T19:23:17.332Z,29.03
2019-02-27T19:25:45.619Z,30.00
2019-02-27T19:28:14.814Z,29.63
2019-02-27T19:30:44.001Z,28.70
2019-02-27T19:33:13.934Z,29.80
2019-02-27T19:35:43.475Z,29.00
2019-02-27T19:38:13.638Z,25.83
2019-02-27T19:40:42.911Z,27.50
2019-02-27T19:43:14.539Z,22.07
2019-02-27T19:45:43.767Z,22.93
2019-02-27T19:48:15.758Z,30.37
2019-02-27T19:50:47.339Z,30.80
2019-02-27T19:53:19.346Z,32.83
2019-02-27T19:55:51.572Z,26.90
2019-02-27T19:58:23.244Z,30.27
2019-02-27T20:00:54.592Z,30.60
2019-02-27T20:03:29.321Z,36.60
2019-02-27T20:06:01.439Z,39.40
2019-02-27T20:08:30.090Z,31.53
2019-02-27T20:10:58.741Z,32.83
2019-02-27T20:13:29.999Z,30.33
2019-02-27T20:16:01.365Z,36.17
2019-02-27T20:18:32.893Z,37.03
2019-02-27T20:21:01.495Z,42.67
2019-02-27T20:23:30.186Z,43.53
2019-02-27T20:25:58.836Z,49.13
2019-02-27T20:28:31.822Z,44.90
2019-02-27T20:35:20.680Z,37.80
2019-02-27T20:37:06.479Z,26.90
2019-02-27T20:39:35.957Z,31.47
2019-02-27T20:42:05.784Z,28.73
2019-02-27T20:44:37.369Z,26.27
2019-02-27T20:47:04.961Z,30.80
2019-02-27T20:49:33.621Z,29.40
2019-02-27T20:52:02.259Z,30.50
2019-02-27T20:54:33.591Z,33.70
2019-02-27T20:57:02.158Z,25.13
2019-02-27T20:59:30.818Z,36.80
2019-02-27T21:01:59.553Z,35.33
2019-02-27T21:04:32.330Z,33.80
2019-02-27T21:07:01.297Z,34.20
2019-02-27T21:09:30.668Z,29.70
2019-02-27T21:12:03.512Z,31.77
2019-02-27T21:14:29.609Z,30.13
2019-02-27T21:17:01.077Z,21.90
2019-02-27T21:19:33.871Z,29.13
2019-02-27T21:22:03.555Z,33.90
2019-02-27T21:24:32.124Z,31.73
2019-02-27T21:27:00.847Z,31.70
2019-02-27T21:29:29.547Z,28.23
2019-02-27T21:32:01.502Z,29.03
2019-02-27T21:34:29.599Z,35.90
2019-02-27T21:37:01.311Z,28.10
2019-02-27T21:39:29.916Z,28.63
2019-02-27T21:41:58.481Z,29.70
2019-02-27T21:44:29.210Z,25.20
2019-02-27T21:46:58.371Z,25.50
2019-02-27T21:49:31.832Z,24.00
2019-02-27T21:51:58.868Z,28.57
2019-02-27T21:54:30.377Z,34.53
2019-02-27T21:56:59.439Z,32.83
2019-02-27T21:59:30.195Z,30.47
2019-02-27T22:02:03.844Z,37.20
2019-02-27T22:05:42.810Z,32.97
2019-02-27T22:07:17.851Z,34.60
2019-02-27T22:12:27.233Z,36.63
2019-02-27T22:15:00.291Z,28.53
2019-02-27T22:17:29.188Z,36.27
2019-02-27T22:20:19.915Z,29.37
2019-02-27T22:26:58.777Z,30.03
2019-02-27T22:34:33.026Z,28.97
2019-02-27T22:36:47.640Z,28.40
2019-02-27T22:41:10.095Z,29.07
2019-02-27T22:44:46.025Z,23.60
2019-02-27T22:47:21.474Z,31.00
2019-02-27T22:51:38.532Z,23.37
2019-02-27T22:52:47.723Z,31.40
2019-02-27T22:55:43.136Z,22.37
2019-02-27T22:58:28.299Z,26.30
2019-02-27T23:01:14.909Z,20.80
2019-02-27T23:03:55.016Z,30.17
2019-02-27T23:06:32.953Z,21.10
2019-02-27T23:09:01.540Z,21.87
2019-02-27T23:11:39.715Z,22.57
2019-02-27T23:14:11.489Z,22.67
2019-02-27T23:16:43.394Z,29.73
2019-02-27T23:19:14.661Z,27.03
2019-02-27T23:21:46.035Z,25.27
2019-02-27T23:24:17.685Z,21.60
2019-02-27T23:26:46.341Z,21.93
2019-02-27T23:29:14.893Z,23.80
2019-02-27T23:31:43.546Z,25.60
2019-02-27T23:34:15.061Z,20.60
2019-02-27T23:36:46.737Z,24.40
2019-02-27T23:39:18.175Z,24.63
2019-02-27T23:41:49.496Z,23.70
2019-02-27T23:44:20.738Z,21.37
2019-02-27T23:46:57.239Z,27.47
2019-02-27T23:49:26.335Z,33.47
2019-02-27T23:51:57.763Z,24.07
2019-02-27T23:54:28.429Z,21.20
2019-02-27T23:56:57.014Z,27.90
2019-02-27T23:59:28.513Z,25.37
